Neilston, United Kingdom
Current Conditions -  °F | °C
As of 7:20 PM on Sunday 21 Dec 2014 (Local Time) from EGPF Reporting Station
Light Rain Light Rain  
Wind Chill: 11°   Ceiling: 1000
Heat Index: 11°   Visibility: 4mi
Dew Point: 10°   Wind: 17mph
Humidity: 94%   Direction: 250°WSW
Pressure: 29.68"   Gusts: NA
Location:  55.79°N, 4.43°W
Report Text: EGPF 211920Z AUTO 25015KT 7000 -RA BKN010/// //////CB 11/10 Q1005 RERA
Loading
Personal Weather Stations






























Interactive Weather Map New forecast layout! Learn more

10-Day Weather Forecast

Advertisements
Track Severe Weather on mobile